This is the latest recevied weather packets stored in our database for station/object IV3IYL-13. If no packets are shown the sender has not sent any weather packets the latest 10 day(s).
| Time | Temp. | Humidity | Pressure | Rain* | Wind** | Luminosity | Snow |
|---|---|---|---|---|---|---|---|
| 1777456855 | 16.67° C | 82% | 1018.1 hPa | - | - | - | - |
| 1777456255 | 16.67° C | 85% | 1018.1 hPa | - | - | - | - |
| 1777455655 | 16.67° C | 83% | 1018.1 hPa | - | - | - | - |
| 1777452654 | 16.67° C | 88% | 1017.9 hPa | - | - | - | - |
| 1777449655 | 16.67° C | 86% | 1017.6 hPa | - | - | - | - |
| 1777449054 | 16.67° C | 87% | 1017.6 hPa | - | - | - | - |
| 1777446654 | 17.22° C | 83% | 1017.3 hPa | - | - | - | - |
| 1777444854 | 17.22° C | 90% | 1017.1 hPa | - | - | - | - |
| 1777442454 | 16.67° C | 91% | 1016.8 hPa | - | - | - | - |
| 1777438254 | 15.56° C | 99% | 1016.2 hPa | - | - | - | - |
| 1777436454 | 15.56° C | 10% | - | - | - | - | - |
| 1777434059 | 16.11° C | 92% | 1015.9 hPa | - | - | - | - |
| 1777431069 | 16.11° C | 88% | 1016.1 hPa | - | - | - | - |
| 1777429253 | 15.56° C | 91% | 1016.2 hPa | - | - | - | - |
| 1777423263 | 16.67° C | 77% | 1016.1 hPa | - | - | - | - |
| 1777422053 | 17.22° C | 79% | 1016.1 hPa | - | - | - | - |
| 1777421453 | 16.67° C | 79% | 1016.1 hPa | - | - | - | - |
| 1777420853 | 17.22° C | 80% | 1016.2 hPa | - | - | - | - |
| 1777417853 | 17.78° C | 71% | 1016.5 hPa | - | - | - | - |
| 1777416653 | 17.78° C | 69% | 1016.5 hPa | - | - | - | - |
| 1777410052 | 18.89° C | 60% | 1016.2 hPa | - | - | - | - |
| 1777408852 | 19.44° C | 58% | 1016 hPa | - | - | - | - |
| 1777399852 | 20.56° C | 51% | 1014.7 hPa | - | - | - | - |
| 1777398651 | 21.11° C | 50% | 1014.5 hPa | - | - | - | - |
| 1777396902 | 21.11° C | 50% | 1014.4 hPa | - | - | - | - |
* Rain since midnight (hover to see other rain measurements)
** Current wind speed in m/s (hover to see current wind gust speed)